Time;durP1;ratioP1;P1;durP2;ratioP2;P2;SDS_P1;SDS_P2;PMS_P1;PMS_P2;Temp;Humidity;BMP_temperature;BMP_pressure;BME280_temperature;BME280_humidity;BME280_pressure;Samples;Min_cycle;Max_cycle;Signal;HPM_P1;HPM_P2
2023/12/30 00:02:22;;;;;;;8.20;5.00;;;;;;;8.27;73.22;99247.77;103390;1253;107917;-71
2023/12/30 00:04:49;;;;;;;8.30;4.90;;;;;;;8.27;73.37;99240.66;103272;1256;138436;-71
2023/12/30 00:07:16;;;;;;;7.80;4.90;;;;;;;8.27;73.45;99248.29;103454;1251;111225;-70
2023/12/30 00:09:43;;;;;;;6.80;4.80;;;;;;;8.28;73.42;99241.33;103441;1251;107908;-71
2023/12/30 00:12:11;;;;;;;7.40;5.00;;;;;;;8.28;73.43;99239.40;103223;1253;138272;-71
2023/12/30 00:14:37;;;;;;;8.60;4.70;;;;;;;8.29;73.56;99240.23;103329;1253;107472;-71
2023/12/30 00:17:04;;;;;;;7.90;4.50;;;;;;;8.29;73.56;99238.67;103196;1253;138943;-71
2023/12/30 00:19:33;;;;;;;10.80;5.10;;;;;;;8.29;73.52;99242.48;103333;1253;111420;-71
2023/12/30 00:22:01;;;;;;;8.60;5.00;;;;;;;8.26;73.47;99247.61;103329;1253;108557;-71
2023/12/30 00:24:28;;;;;;;8.00;4.80;;;;;;;8.19;73.48;99246.15;103343;1253;138641;-71
2023/12/30 00:26:54;;;;;;;9.20;5.50;;;;;;;8.11;73.60;99245.10;103461;1253;107562;-72
2023/12/30 00:29:21;;;;;;;8.60;5.40;;;;;;;8.04;73.65;99246.37;103289;1253;137997;-71
2023/12/30 00:31:48;;;;;;;11.70;6.20;;;;;;;7.96;73.81;99248.63;103392;1258;111063;-71
2023/12/30 00:34:15;;;;;;;9.60;6.10;;;;;;;7.85;73.95;99241.02;103321;1253;106945;-70
2023/12/30 00:36:45;;;;;;;9.50;5.70;;;;;;;7.76;74.08;99238.45;103176;1259;137515;-72
2023/12/30 00:39:12;;;;;;;10.60;6.20;;;;;;;7.63;74.29;99239.08;104736;1252;106474;-72
2023/12/30 00:41:39;;;;;;;9.70;6.10;;;;;;;7.53;74.52;99241.34;104183;1256;137645;-71
2023/12/30 00:44:06;;;;;;;10.40;6.40;;;;;;;7.43;74.78;99240.66;103243;1257;110487;-71
2023/12/30 00:46:33;;;;;;;10.90;7.00;;;;;;;7.33;74.98;99233.91;104770;1253;106960;-72
2023/12/30 00:49:00;;;;;;;9.50;6.70;;;;;;;7.26;75.30;99237.45;104808;1253;95970;-71
2023/12/30 00:51:27;;;;;;;12.40;7.70;;;;;;;7.19;75.61;99241.15;104766;1253;108025;-71
2023/12/30 00:53:54;;;;;;;11.50;7.30;;;;;;;7.11;75.76;99235.20;104680;1256;138093;-72
2023/12/30 00:56:20;;;;;;;12.30;7.50;;;;;;;7.04;75.99;99238.23;104804;1253;110886;-71
2023/12/30 00:58:47;;;;;;;11.50;7.30;;;;;;;6.98;76.06;99238.05;104692;1252;138409;-71
2023/12/30 01:01:14;;;;;;;12.40;7.70;;;;;;;6.94;76.43;99235.10;104818;1253;96039;-71
2023/12/30 01:03:41;;;;;;;10.20;6.60;;;;;;;6.90;76.72;99229.02;104795;1252;107495;-72
2023/12/30 01:06:10;;;;;;;10.60;7.20;;;;;;;6.86;77.03;99226.38;104671;1253;138721;-72
2023/12/30 01:08:37;;;;;;;11.40;7.10;;;;;;;6.83;77.22;99222.67;104226;1253;110428;-70
2023/12/30 01:11:04;;;;;;;13.00;7.40;;;;;;;6.82;77.38;99224.27;103321;1253;138988;-71
2023/12/30 01:13:31;;;;;;;14.00;7.20;;;;;;;6.81;77.39;99222.05;103565;1251;97922;-71
2023/12/30 01:15:58;;;;;;;10.80;6.80;;;;;;;6.83;77.65;99217.17;103467;1252;107789;-72
2023/12/30 01:18:25;;;;;;;11.60;7.10;;;;;;;6.85;77.71;99215.72;103162;1257;138324;-70
2023/12/30 01:20:53;;;;;;;13.60;7.50;;;;;;;6.88;77.78;99213.69;103357;1256;112013;-72
2023/12/30 01:23:20;;;;;;;11.40;6.80;;;;;;;6.91;78.02;99214.64;104640;1253;138366;-72
2023/12/30 01:25:46;;;;;;;10.70;7.00;;;;;;;6.93;77.98;99216.65;104739;1252;96114;-71
2023/12/30 01:28:13;;;;;;;13.90;6.50;;;;;;;6.94;78.20;99217.27;103837;1253;106902;-71
2023/12/30 01:30:41;;;;;;;11.20;6.50;;;;;;;6.96;78.21;99208.92;103649;1257;138490;-71
2023/12/30 01:33:08;;;;;;;10.20;6.20;;;;;;;6.99;78.16;99208.13;104404;1253;110580;-70
2023/12/30 01:35:35;;;;;;;10.30;6.40;;;;;;;7.01;78.17;99199.27;104251;1253;138482;-71
2023/12/30 01:38:03;;;;;;;9.90;6.50;;;;;;;7.03;78.37;99205.78;103413;1253;97900;-71
2023/12/30 01:40:32;;;;;;;10.10;6.30;;;;;;;7.05;78.47;99199.46;103208;1259;107251;-72
2023/12/30 01:43:02;;;;;;;10.80;6.60;;;;;;;7.08;78.36;99205.23;103217;1253;98247;-72
2023/12/30 01:45:30;;;;;;;9.50;6.40;;;;;;;7.09;78.45;99201.04;103348;1253;110899;-71
2023/12/30 01:47:58;;;;;;;9.90;6.00;;;;;;;7.12;78.25;99193.00;104341;1256;138764;-72
2023/12/30 01:50:25;;;;;;;10.70;6.70;;;;;;;7.15;78.24;99193.77;104589;1251;95611;-71
2023/12/30 01:52:53;;;;;;;9.30;6.30;;;;;;;7.18;78.31;99188.47;104431;1253;139197;-71
2023/12/30 01:55:20;;;;;;;8.40;5.90;;;;;;;7.21;78.11;99189.58;102691;1256;1016319;-71
2023/12/30 01:57:47;;;;;;;10.90;6.30;;;;;;;7.22;78.15;99181.92;104803;1252;110751;-72
2023/12/30 02:00:20;;;;;;;8.90;5.70;;;;;;;7.25;78.16;99181.10;104205;1253;138336;-71
2023/12/30 02:02:48;;;;;;;11.30;6.30;;;;;;;7.29;78.00;99186.35;103663;1253;98273;-70
2023/12/30 02:05:15;;;;;;;11.20;6.70;;;;;;;7.30;77.98;99180.77;103240;1253;139284;-71
2023/12/30 02:07:44;;;;;;;11.30;6.40;;;;;;;7.31;77.97;99177.63;103380;1254;97807;-71
2023/12/30 02:10:11;;;;;;;10.40;6.80;;;;;;;7.33;77.89;99177.72;103479;1253;112640;-71
2023/12/30 02:12:38;;;;;;;11.00;6.30;;;;;;;7.35;78.01;99176.62;103491;1251;138216;-70
2023/12/30 02:15:17;;;;;;;9.20;6.10;;;;;;;7.37;77.86;99175.69;103653;1251;97676;-72
2023/12/30 02:17:44;;;;;;;9.90;5.70;;;;;;;7.39;77.83;99170.80;104604;1252;138369;-71
2023/12/30 02:20:12;;;;;;;10.40;6.00;;;;;;;7.37;77.73;99169.81;104823;1254;95872;-71
2023/12/30 02:22:45;;;;;;;10.60;6.10;;;;;;;7.40;77.67;99162.98;104711;1253;138742;-71
2023/12/30 02:25:12;;;;;;;10.30;6.20;;;;;;;7.42;77.78;99158.73;104340;1253;107243;-71
2023/12/30 02:27:39;;;;;;;9.10;5.90;;;;;;;7.43;77.69;99146.41;103412;1253;97788;-69
2023/12/30 02:30:08;;;;;;;7.70;5.40;;;;;;;7.46;77.61;99134.90;104189;1253;138481;-71
2023/12/30 02:32:35;;;;;;;9.90;5.70;;;;;;;7.50;77.50;99134.22;104352;1253;97807;-71
2023/12/30 02:35:03;;;;;;;7.90;5.40;;;;;;;7.52;77.50;99130.48;104695;1251;138383;-72
2023/12/30 02:37:30;;;;;;;9.70;6.20;;;;;;;7.54;77.39;99131.63;104806;1251;107571;-71
2023/12/30 02:39:57;;;;;;;7.50;5.00;;;;;;;7.56;77.27;99128.96;103848;1251;97798;-71
2023/12/30 02:42:24;;;;;;;8.70;5.50;;;;;;;7.57;77.15;99130.51;103285;1256;138525;-71
2023/12/30 02:44:51;;;;;;;8.50;5.30;;;;;;;7.58;77.13;99136.17;104053;1253;97722;-72
2023/12/30 02:47:17;;;;;;;7.60;5.00;;;;;;;7.58;77.13;99129.60;104414;1255;139121;-70
2023/12/30 02:49:46;;;;;;;7.60;5.30;;;;;;;7.62;77.07;99129.47;103818;1251;108231;-71
2023/12/30 02:52:12;;;;;;;9.50;4.90;;;;;;;7.63;77.01;99126.79;104260;1251;96273;-72
2023/12/30 02:54:40;;;;;;;7.40;4.80;;;;;;;7.65;76.96;99124.82;104025;1251;138397;-71
2023/12/30 02:57:07;;;;;;;6.70;4.70;;;;;;;7.68;76.93;99117.09;103670;1253;97713;-71
2023/12/30 02:59:34;;;;;;;7.30;4.60;;;;;;;7.71;76.80;99123.38;103462;1253;138134;-71
2023/12/30 03:02:01;;;;;;;7.00;5.00;;;;;;;7.74;76.71;99116.70;103415;1251;107136;-71
2023/12/30 03:04:28;;;;;;;8.50;4.90;;;;;;;7.76;76.68;99124.05;103903;1256;97863;-70
2023/12/30 03:06:55;;;;;;;6.80;4.70;;;;;;;7.79;76.51;99111.12;103221;1251;138004;-71
2023/12/30 03:09:21;;;;;;;7.80;4.50;;;;;;;7.84;76.55;99110.57;103746;1256;97890;-70
2023/12/30 03:11:48;;;;;;;7.50;5.00;;;;;;;7.88;76.40;99106.42;103329;1251;137514;-71
2023/12/30 03:14:15;;;;;;;6.30;4.20;;;;;;;7.92;76.28;99108.38;103413;1256;108513;-72
2023/12/30 03:16:42;;;;;;;8.20;4.70;;;;;;;7.94;76.30;99103.62;103845;1251;138071;-70
2023/12/30 03:19:09;;;;;;;9.40;4.40;;;;;;;7.97;76.14;99085.52;103632;1251;107475;-71
2023/12/30 03:21:36;;;;;;;7.00;4.50;;;;;;;7.99;76.06;99083.16;104424;1256;96357;-70
2023/12/30 03:24:03;;;;;;;6.10;4.20;;;;;;;8.01;75.81;99074.95;103402;1254;138131;-71
2023/12/30 03:26:29;;;;;;;6.60;4.10;;;;;;;8.02;75.87;99065.05;103500;1255;107784;-72
2023/12/30 03:28:56;;;;;;;7.90;4.30;;;;;;;8.04;75.87;99053.37;103936;1252;138487;-71
2023/12/30 03:31:25;;;;;;;6.10;4.00;;;;;;;8.05;75.80;99052.77;104797;1254;107237;-71
2023/12/30 03:33:52;;;;;;;6.10;3.90;;;;;;;8.08;75.60;99056.49;104804;1253;95997;-72
2023/12/30 03:36:20;;;;;;;8.50;4.10;;;;;;;8.12;75.66;99047.85;103972;1253;138334;-71
2023/12/30 03:38:48;;;;;;;6.60;4.00;;;;;;;8.16;75.70;99044.05;103699;1253;107460;-71
2023/12/30 03:41:15;;;;;;;7.10;3.80;;;;;;;8.20;75.57;99038.85;104391;1253;139110;-70
2023/12/30 03:43:42;;;;;;;4.80;3.50;;;;;;;8.24;75.43;99042.50;103387;1252;108025;-71
2023/12/30 03:46:09;;;;;;;6.40;3.40;;;;;;;8.28;75.32;99036.45;104134;1251;97933;-72
2023/12/30 03:48:36;;;;;;;6.80;3.60;;;;;;;8.31;75.18;99027.66;104731;1251;138582;-73
2023/12/30 03:51:05;;;;;;;5.00;3.40;;;;;;;8.35;75.11;99029.77;104798;1256;107321;-71
2023/12/30 03:53:32;;;;;;;5.50;3.40;;;;;;;8.40;74.97;99030.23;104681;1251;139315;-72
2023/12/30 03:55:59;;;;;;;7.30;3.30;;;;;;;8.45;74.92;99033.83;104817;1251;107034;-71
2023/12/30 03:58:26;;;;;;;6.50;3.70;;;;;;;8.52;74.84;99032.36;103852;1253;97787;-71
2023/12/30 04:00:53;;;;;;;4.10;2.90;;;;;;;8.57;74.60;99036.28;103389;1255;138005;-70
2023/12/30 04:03:20;;;;;;;4.10;2.90;;;;;;;8.63;74.46;99034.10;103312;1257;110292;-71
2023/12/30 04:05:47;;;;;;;4.50;2.80;;;;;;;8.69;74.46;99021.19;103322;1256;138299;-70
2023/12/30 04:08:14;;;;;;;4.40;2.80;;;;;;;8.74;74.07;99023.23;103357;1253;107794;-70
2023/12/30 04:10:40;;;;;;;10.00;2.90;;;;;;;8.81;74.06;99029.33;103309;1253;139420;-70
2023/12/30 04:13:09;;;;;;;3.70;2.80;;;;;;;8.87;73.95;99017.11;103434;1251;111892;-71
2023/12/30 04:15:37;;;;;;;4.50;2.90;;;;;;;8.91;73.50;99015.17;103394;1256;107507;-71
2023/12/30 04:18:04;;;;;;;6.30;3.10;;;;;;;8.94;73.29;99008.26;103359;1256;138541;-70
2023/12/30 04:20:32;;;;;;;4.20;2.90;;;;;;;8.97;73.10;99015.08;103447;1256;107526;-71
2023/12/30 04:22:59;;;;;;;4.80;2.80;;;;;;;9.01;72.95;99016.48;103337;1255;137651;-71
2023/12/30 04:25:27;;;;;;;4.40;2.90;;;;;;;9.03;73.06;99007.01;103426;1256;110706;-71
2023/12/30 04:27:54;;;;;;;4.60;3.00;;;;;;;9.04;72.84;99018.04;103351;1256;108434;-71
2023/12/30 04:30:21;;;;;;;4.20;2.60;;;;;;;9.04;72.63;99005.58;103200;1251;138502;-72
2023/12/30 04:32:48;;;;;;;5.30;2.90;;;;;;;9.05;72.48;99008.97;103276;1256;107664;-71
2023/12/30 04:35:15;;;;;;;5.60;3.20;;;;;;;9.07;72.46;99009.94;103169;1251;138510;-72
2023/12/30 04:37:42;;;;;;;3.70;2.70;;;;;;;9.09;72.31;99012.98;103363;1256;111974;-72
2023/12/30 04:40:10;;;;;;;3.80;2.60;;;;;;;9.09;72.29;99000.45;103473;1254;107664;-71
2023/12/30 04:42:37;;;;;;;4.00;2.50;;;;;;;9.12;72.45;99006.61;103728;1254;137275;-71
2023/12/30 04:45:12;;;;;;;3.70;2.70;;;;;;;9.14;72.16;99003.23;103413;1254;107497;-71
2023/12/30 04:48:16;;;;;;;3.50;2.60;;;;;;;9.14;71.92;99000.42;103615;1256;138532;-70
2023/12/30 04:50:43;;;;;;;3.80;2.70;;;;;;;9.13;72.10;98999.27;102690;1254;1003103;-71
2023/12/30 04:53:11;;;;;;;4.20;2.70;;;;;;;9.10;72.12;99000.42;103342;1256;139256;-71
2023/12/30 04:55:37;;;;;;;4.10;2.60;;;;;;;9.10;72.08;99005.10;103408;1256;98434;-70
2023/12/30 04:58:05;;;;;;;3.70;2.60;;;;;;;9.09;72.40;99002.58;103605;1256;107696;-70
2023/12/30 05:00:31;;;;;;;4.50;2.70;;;;;;;9.08;72.51;98992.40;103411;1256;150926;-70
2023/12/30 05:02:59;;;;;;;3.90;2.70;;;;;;;9.06;72.42;98994.02;103489;1254;111379;-71
2023/12/30 05:05:26;;;;;;;3.80;3.00;;;;;;;9.04;72.44;98998.63;103322;1257;138282;-70
2023/12/30 05:07:53;;;;;;;3.50;2.70;;;;;;;9.02;72.54;98996.45;103468;1255;97781;-70
2023/12/30 05:10:20;;;;;;;5.10;2.90;;;;;;;9.00;72.59;98993.26;103441;1256;108410;-71
2023/12/30 05:12:47;;;;;;;4.30;2.60;;;;;;;8.99;72.62;98997.99;103365;1251;138204;-70
2023/12/30 05:15:14;;;;;;;4.20;3.00;;;;;;;8.99;72.51;98999.59;103464;1257;111310;-70
2023/12/30 05:17:41;;;;;;;3.70;2.70;;;;;;;8.98;72.43;99007.73;103282;1256;139882;-71
2023/12/30 05:20:12;;;;;;;4.60;2.80;;;;;;;8.97;72.41;99005.87;104116;1254;97192;-70
2023/12/30 05:22:40;;;;;;;3.60;2.60;;;;;;;8.97;72.45;99002.41;104251;1256;138721;-71
2023/12/30 05:25:07;;;;;;;3.50;2.60;;;;;;;8.96;72.54;98997.93;103466;1256;97784;-71
2023/12/30 05:27:34;;;;;;;3.10;2.30;;;;;;;8.96;72.49;98996.91;103922;1251;111108;-70
2023/12/30 05:30:01;;;;;;;3.80;2.60;;;;;;;8.96;72.63;99002.13;103706;1253;138315;-71
2023/12/30 05:32:28;;;;;;;3.30;2.30;;;;;;;8.96;72.73;99009.20;103483;1254;98311;-72
2023/12/30 05:34:54;;;;;;;2.80;2.20;;;;;;;8.97;72.72;99004.16;103294;1257;138418;-71
2023/12/30 05:37:21;;;;;;;3.60;2.30;;;;;;;8.98;72.71;99007.25;103457;1251;97788;-71
2023/12/30 05:39:48;;;;;;;4.00;2.20;;;;;;;8.97;72.60;99012.11;103508;1256;111087;-71
2023/12/30 05:42:15;;;;;;;4.70;2.30;;;;;;;8.98;72.51;99022.83;103319;1251;138676;-70
2023/12/30 05:44:42;;;;;;;3.70;2.50;;;;;;;8.98;72.67;99020.59;103464;1254;98935;-71
2023/12/30 05:47:09;;;;;;;3.40;2.40;;;;;;;8.98;72.60;99021.96;103351;1254;138641;-71
2023/12/30 05:49:39;;;;;;;3.90;2.40;;;;;;;8.97;72.63;99025.46;103512;1255;97785;-71
2023/12/30 05:52:07;;;;;;;5.00;2.70;;;;;;;8.98;72.73;99025.77;103484;1256;111179;-70
2023/12/30 05:54:34;;;;;;;4.20;2.40;;;;;;;8.99;72.79;99031.63;103985;1251;138104;-69
2023/12/30 05:57:01;;;;;;;3.60;2.40;;;;;;;8.99;72.73;99033.21;103608;1255;98393;-71
2023/12/30 05:59:28;;;;;;;3.40;2.30;;;;;;;8.99;72.77;99039.63;103395;1252;139135;-71
2023/12/30 06:01:56;;;;;;;4.80;2.50;;;;;;;8.99;72.83;99046.91;103393;1257;98128;-70
2023/12/30 06:04:23;;;;;;;4.40;2.30;;;;;;;8.97;72.92;99047.64;103332;1258;111502;-70
2023/12/30 06:06:50;;;;;;;5.40;2.20;;;;;;;8.98;73.30;99070.50;103485;1255;138590;-69
2023/12/30 06:09:17;;;;;;;2.10;1.90;;;;;;;8.98;73.47;99074.16;103437;1251;97685;-70
2023/12/30 06:11:44;;;;;;;1.90;1.70;;;;;;;8.97;73.68;99070.38;103505;1256;138216;-71
2023/12/30 06:14:10;;;;;;;3.30;1.80;;;;;;;8.96;73.70;99075.27;103541;1251;98464;-71
2023/12/30 06:16:37;;;;;;;1.50;1.10;;;;;;;8.96;73.48;99070.23;103378;1256;111245;-71
2023/12/30 06:19:04;;;;;;;2.10;1.30;;;;;;;8.95;73.41;99080.50;103482;1255;107432;-70
2023/12/30 06:21:31;;;;;;;1.90;1.30;;;;;;;8.93;73.51;99089.08;103417;1251;97710;-71
2023/12/30 06:23:58;;;;;;;2.90;1.30;;;;;;;8.88;73.85;99091.39;103298;1256;137509;-69
2023/12/30 06:26:25;;;;;;;4.40;1.10;;;;;;;8.83;74.84;99097.38;103435;1255;97797;-70
2023/12/30 06:28:52;;;;;;;1.00;0.90;;;;;;;8.67;75.77;99092.32;103286;1257;138239;-70
2023/12/30 06:31:18;;;;;;;1.00;0.90;;;;;;;8.50;76.18;99113.83;103395;1257;109085;-71
2023/12/30 06:33:45;;;;;;;3.50;1.10;;;;;;;8.36;76.71;99107.65;103383;1251;97908;-72
2023/12/30 06:36:22;;;;;;;1.70;1.00;;;;;;;8.25;77.28;99111.55;103268;1251;137942;-72
2023/12/30 06:38:49;;;;;;;1.10;0.70;;;;;;;8.14;77.80;99116.13;103299;1257;97899;-71
2023/12/30 06:41:18;;;;;;;2.40;0.60;;;;;;;8.06;77.57;99108.84;103220;1256;138324;-71
2023/12/30 06:43:45;;;;;;;2.20;0.80;;;;;;;8.00;77.48;99100.27;103319;1251;106608;-72
2023/12/30 06:46:12;;;;;;;0.80;0.50;;;;;;;7.97;77.48;99100.56;103352;1251;97733;-71
2023/12/30 06:48:39;;;;;;;0.90;0.50;;;;;;;7.95;77.30;99107.73;103206;1256;138605;-71
2023/12/30 06:51:09;;;;;;;1.30;0.90;;;;;;;7.95;77.26;99118.48;103369;1251;97891;-71
2023/12/30 06:53:36;;;;;;;2.00;0.80;;;;;;;7.98;77.36;99121.11;103353;1256;137241;-71
2023/12/30 06:56:03;;;;;;;1.10;0.90;;;;;;;7.99;77.46;99117.98;103313;1256;107651;-73
2023/12/30 06:58:30;;;;;;;1.40;0.90;;;;;;;7.99;77.50;99122.64;103399;1256;98168;-71
2023/12/30 07:00:57;;;;;;;1.10;1.00;;;;;;;7.98;77.55;99128.40;103229;1251;138825;-72
2023/12/30 07:03:24;;;;;;;1.40;1.00;;;;;;;7.96;77.55;99133.85;103383;1251;97676;-71
2023/12/30 07:05:51;;;;;;;1.80;1.00;;;;;;;7.95;77.59;99130.40;103275;1251;138054;-71
2023/12/30 07:08:18;;;;;;;1.00;0.90;;;;;;;7.96;77.75;99125.55;103304;1251;106656;-72
2023/12/30 07:10:45;;;;;;;1.60;1.10;;;;;;;7.97;77.96;99136.25;103239;1257;139114;-72
2023/12/30 07:13:12;;;;;;;2.70;1.40;;;;;;;7.97;78.24;99135.52;103314;1256;107149;-72
2023/12/30 07:15:39;;;;;;;1.20;1.10;;;;;;;7.97;78.42;99139.33;103351;1257;97787;-72
2023/12/30 07:18:06;;;;;;;1.00;0.90;;;;;;;7.97;78.68;99140.39;103370;1251;137391;-71
2023/12/30 07:20:35;;;;;;;2.10;1.00;;;;;;;7.95;78.87;99139.79;103486;1256;107652;-72
2023/12/30 07:23:04;;;;;;;2.60;1.30;;;;;;;7.95;79.05;99141.49;103274;1251;138416;-72
2023/12/30 07:25:32;;;;;;;2.80;1.40;;;;;;;7.96;79.49;99145.09;103318;1254;108650;-72
2023/12/30 07:27:59;;;;;;;4.20;1.30;;;;;;;7.97;79.58;99146.27;103448;1251;97820;-72
2023/12/30 07:30:27;;;;;;;1.70;1.20;;;;;;;8.00;79.62;99147.02;103390;1256;137797;-71
2023/12/30 07:32:54;;;;;;;2.10;1.10;;;;;;;8.06;79.80;99143.80;103981;1251;107950;-70
2023/12/30 07:35:22;;;;;;;2.30;1.40;;;;;;;8.12;79.79;99143.42;103198;1256;137591;-72
2023/12/30 07:37:49;;;;;;;2.70;1.30;;;;;;;8.13;79.87;99148.57;103375;1251;107070;-71
2023/12/30 07:40:16;;;;;;;2.70;1.70;;;;;;;8.16;79.89;99152.80;103391;1256;97750;-70
2023/12/30 07:42:43;;;;;;;3.60;1.40;;;;;;;8.16;79.94;99155.18;103332;1251;138640;-71
2023/12/30 07:45:11;;;;;;;3.00;1.80;;;;;;;8.17;80.01;99153.60;103413;1256;107919;-71
2023/12/30 07:47:38;;;;;;;3.00;1.80;;;;;;;8.18;80.03;99156.17;103768;1256;138182;-71
2023/12/30 07:50:06;;;;;;;2.70;1.70;;;;;;;8.21;80.20;99157.76;103290;1258;107370;-72
2023/12/30 07:52:33;;;;;;;2.40;1.50;;;;;;;8.26;80.03;99157.41;103458;1251;98462;-71
2023/12/30 07:55:00;;;;;;;3.80;1.70;;;;;;;8.35;80.04;99160.15;103401;1251;111432;-70
2023/12/30 07:57:27;;;;;;;2.80;1.60;;;;;;;8.48;80.13;99157.40;103332;1252;106509;-72
2023/12/30 07:59:55;;;;;;;3.70;1.70;;;;;;;8.72;80.06;99159.34;103307;1256;137694;-72
2023/12/30 08:02:22;;;;;;;3.00;1.80;;;;;;;8.89;79.42;99153.23;103284;1254;106399;-72
2023/12/30 08:04:48;;;;;;;1.60;1.50;;;;;;;9.05;78.80;99156.55;103272;1257;138622;-71
2023/12/30 08:07:16;;;;;;;2.60;1.50;;;;;;;9.07;77.90;99154.86;103379;1251;111308;-72
2023/12/30 08:09:43;;;;;;;2.70;1.50;;;;;;;9.02;77.41;99144.90;103293;1256;106986;-71
2023/12/30 08:12:11;;;;;;;2.50;1.50;;;;;;;8.94;77.29;99162.04;103282;1257;138326;-71
2023/12/30 08:14:39;;;;;;;2.60;1.50;;;;;;;8.86;77.26;99162.90;103345;1254;106754;-71
2023/12/30 08:17:06;;;;;;;2.10;1.20;;;;;;;8.79;77.22;99174.15;103215;1251;138345;-71
2023/12/30 08:19:32;;;;;;;1.80;1.10;;;;;;;8.71;77.24;99174.63;103353;1254;111673;-71
2023/12/30 08:21:59;;;;;;;3.10;1.30;;;;;;;8.64;77.30;99177.35;102563;1255;1002930;-71
2023/12/30 08:24:28;;;;;;;2.50;1.20;;;;;;;8.63;77.17;99180.71;103257;1255;138035;-71
2023/12/30 08:26:55;;;;;;;1.70;1.30;;;;;;;8.60;76.95;99191.20;102565;1255;1002700;-70
2023/12/30 08:29:22;;;;;;;3.30;1.10;;;;;;;8.57;77.11;99188.73;103250;1251;138701;-72
2023/12/30 08:31:49;;;;;;;2.60;1.30;;;;;;;8.51;77.36;99191.76;103376;1251;110500;-72
2023/12/30 08:34:16;;;;;;;3.20;1.60;;;;;;;8.46;77.82;99199.39;103250;1251;107329;-71
2023/12/30 08:36:44;;;;;;;2.50;1.50;;;;;;;8.43;78.18;99193.44;103239;1251;137552;-71
2023/12/30 08:39:11;;;;;;;2.80;1.60;;;;;;;8.38;78.36;99198.48;103336;1251;107783;-71
2023/12/30 08:41:38;;;;;;;4.30;1.60;;;;;;;8.30;78.41;99206.97;103909;1251;139513;-70
2023/12/30 08:44:05;;;;;;;2.50;1.60;;;;;;;8.19;78.56;99213.94;103526;1251;110597;-71
2023/12/30 08:46:33;;;;;;;2.60;1.40;;;;;;;8.09;78.87;99220.59;103529;1251;107011;-71
2023/12/30 08:49:00;;;;;;;4.00;1.40;;;;;;;8.00;79.25;99226.29;103596;1256;97937;-69
2023/12/30 08:51:29;;;;;;;1.30;1.10;;;;;;;7.93;79.61;99239.04;102752;1251;1003091;-70
2023/12/30 08:53:56;;;;;;;2.10;1.30;;;;;;;7.86;80.03;99244.45;103384;1256;138941;-71
2023/12/30 08:56:24;;;;;;;2.20;1.60;;;;;;;7.77;80.43;99236.16;103338;1256;110931;-71
2023/12/30 08:58:50;;;;;;;3.60;1.40;;;;;;;7.70;80.82;99237.95;103160;1251;139269;-71
2023/12/30 09:01:17;;;;;;;2.50;1.10;;;;;;;7.63;80.92;99230.94;103372;1255;97816;-70
2023/12/30 09:03:44;;;;;;;1.90;1.30;;;;;;;7.59;81.09;99237.14;103303;1251;107219;-72
2023/12/30 09:06:12;;;;;;;2.60;1.50;;;;;;;7.54;81.27;99248.23;103364;1251;138101;-71
2023/12/30 09:08:39;;;;;;;5.30;1.50;;;;;;;7.53;81.73;99252.58;103378;1251;110403;-71
2023/12/30 09:11:07;;;;;;;3.20;1.60;;;;;;;7.51;82.02;99252.80;103327;1251;138547;-71
2023/12/30 09:13:34;;;;;;;3.50;1.70;;;;;;;7.50;82.31;99248.02;102732;1251;1002976;-72
2023/12/30 09:16:01;;;;;;;6.10;2.30;;;;;;;7.49;82.67;99256.86;103478;1251;107817;-72
2023/12/30 09:18:28;;;;;;;5.10;2.50;;;;;;;7.50;83.01;99268.08;103347;1252;137859;-71
2023/12/30 09:20:56;;;;;;;3.50;1.60;;;;;;;7.44;83.54;99284.89;103427;1251;111164;-71
2023/12/30 09:23:23;;;;;;;1.80;1.20;;;;;;;7.27;82.13;99277.35;103292;1253;138108;-73
2023/12/30 09:25:50;;;;;;;2.50;1.10;;;;;;;7.01;81.08;99283.42;103362;1256;98229;-71
2023/12/30 09:28:16;;;;;;;1.80;0.90;;;;;;;6.81;80.51;99283.41;103400;1251;108877;-72
2023/12/30 09:30:43;;;;;;;1.20;0.80;;;;;;;6.64;80.62;99274.43;103254;1256;138672;-72
2023/12/30 09:33:10;;;;;;;0.70;0.60;;;;;;;6.49;80.89;99266.97;103502;1251;110714;-70
2023/12/30 09:35:39;;;;;;;1.70;0.80;;;;;;;6.40;81.14;99269.33;103353;1251;141266;-71
2023/12/30 09:38:06;;;;;;;1.60;0.80;;;;;;;6.33;81.72;99266.60;103468;1251;97656;-70
2023/12/30 09:40:33;;;;;;;5.90;1.30;;;;;;;6.30;82.21;99259.77;103403;1251;109000;-72
2023/12/30 09:43:05;;;;;;;3.20;1.00;;;;;;;6.31;82.39;99268.88;103352;1255;138065;-71
2023/12/30 09:45:38;;;;;;;3.30;1.50;;;;;;;6.32;82.69;99271.64;103376;1251;111078;-70
2023/12/30 09:48:07;;;;;;;2.00;1.30;;;;;;;6.32;82.91;99274.74;103758;1251;138993;-71
2023/12/30 09:50:35;;;;;;;3.20;1.70;;;;;;;6.33;83.18;99271.42;103613;1251;97858;-72
2023/12/30 09:53:02;;;;;;;2.80;1.50;;;;;;;6.37;83.67;99266.97;103227;1251;138454;-72
2023/12/30 09:55:29;;;;;;;4.20;1.90;;;;;;;6.44;83.77;99266.60;103325;1256;97805;-71
2023/12/30 09:57:56;;;;;;;4.80;1.90;;;;;;;6.46;83.92;99258.06;103386;1251;110709;-73
2023/12/30 10:00:26;;;;;;;2.60;1.70;;;;;;;6.50;84.15;99254.32;103197;1251;137518;-72
2023/12/30 10:02:54;;;;;;;2.60;1.40;;;;;;;6.60;84.26;99257.45;103308;1256;97804;-72
2023/12/30 10:05:21;;;;;;;2.30;1.40;;;;;;;6.74;84.18;99257.86;103184;1254;138872;-71
2023/12/30 10:07:49;;;;;;;1.80;1.40;;;;;;;6.85;84.37;99254.23;103426;1252;97692;-72
2023/12/30 10:10:31;;;;;;;2.40;1.30;;;;;;;6.97;84.44;99252.60;103429;1251;111006;-72
2023/12/30 10:12:58;;;;;;;3.30;1.80;;;;;;;7.07;84.32;99248.11;103256;1253;139014;-73
2023/12/30 10:15:25;;;;;;;2.20;1.70;;;;;;;7.17;84.22;99249.36;103320;1256;98283;-72
2023/12/30 10:17:52;;;;;;;5.50;2.20;;;;;;;7.25;84.06;99249.95;103308;1251;138065;-72
2023/12/30 10:20:23;;;;;;;3.70;1.80;;;;;;;7.32;83.91;99255.21;103360;1255;97886;-73
2023/12/30 10:22:51;;;;;;;2.50;1.60;;;;;;;7.42;84.01;99260.41;103237;1256;138432;-72
2023/12/30 10:25:18;;;;;;;2.80;1.90;;;;;;;7.62;83.98;99259.34;103366;1251;106745;-70
2023/12/30 10:27:48;;;;;;;3.60;1.70;;;;;;;7.87;83.51;99259.47;103340;1256;97776;-70
2023/12/30 10:30:19;;;;;;;3.40;1.80;;;;;;;7.95;82.83;99257.61;103236;1251;137985;-71
2023/12/30 10:32:47;;;;;;;5.20;1.90;;;;;;;8.04;82.31;99267.66;103308;1251;97893;-72
2023/12/30 10:35:14;;;;;;;5.70;1.80;;;;;;;8.08;81.51;99271.69;103242;1254;137795;-71
2023/12/30 10:37:42;;;;;;;3.20;1.80;;;;;;;8.05;81.07;99265.39;103355;1256;107321;-71
2023/12/30 10:40:11;;;;;;;2.10;1.60;;;;;;;8.01;80.33;99263.14;103397;1251;98296;-72
2023/12/30 10:42:37;;;;;;;2.90;1.40;;;;;;;7.93;79.83;99263.23;104686;1253;137284;-71
2023/12/30 10:45:05;;;;;;;3.00;1.50;;;;;;;7.87;79.81;99265.86;104159;1252;96330;-71
2023/12/30 10:47:34;;;;;;;2.00;1.40;;;;;;;7.90;79.99;99278.07;103348;1256;137678;-71
2023/12/30 10:50:04;;;;;;;2.10;1.30;;;;;;;7.90;79.78;99271.48;103322;1251;107477;-72
2023/12/30 10:52:33;;;;;;;2.90;1.50;;;;;;;7.88;79.33;99275.01;103333;1256;97893;-72
2023/12/30 10:55:10;;;;;;;2.30;1.50;;;;;;;7.88;79.03;99279.84;103203;1256;138403;-71
2023/12/30 10:57:40;;;;;;;2.80;1.60;;;;;;;7.98;79.07;99281.08;104118;1256;97814;-70
2023/12/30 11:00:10;;;;;;;1.80;1.50;;;;;;;8.07;78.45;99279.50;103346;1254;137644;-72
2023/12/30 11:02:38;;;;;;;1.80;1.50;;;;;;;8.17;78.18;99281.58;104741;1251;108820;-71
2023/12/30 11:05:06;;;;;;;2.00;1.40;;;;;;;8.25;77.84;99278.82;103744;1251;137753;-70
2023/12/30 11:07:35;;;;;;;3.90;1.60;;;;;;;8.31;77.46;99279.48;103466;1255;108195;-72
2023/12/30 11:10:06;;;;;;;2.80;1.50;;;;;;;8.35;76.78;99282.29;103426;1256;97661;-72
2023/12/30 11:12:34;;;;;;;4.60;1.60;;;;;;;8.32;76.01;99277.88;103220;1251;137837;-71
2023/12/30 11:15:03;;;;;;;2.50;1.60;;;;;;;8.33;75.95;99282.33;103274;1256;106766;-72
2023/12/30 11:17:36;;;;;;;2.40;1.70;;;;;;;8.39;75.52;99294.94;103261;1251;138234;-70
2023/12/30 11:20:25;;;;;;;2.00;1.40;;;;;;;8.57;75.80;99290.61;103900;1251;107062;-72
2023/12/30 11:22:52;;;;;;;2.80;1.70;;;;;;;8.77;75.23;99287.55;103879;1251;138693;-71
2023/12/30 11:25:20;;;;;;;2.00;1.50;;;;;;;8.83;74.93;99295.48;103439;1251;111520;-70
2023/12/30 11:27:52;;;;;;;3.60;1.70;;;;;;;8.86;74.39;99289.98;103446;1251;107841;-70
2023/12/30 11:30:24;;;;;;;2.20;1.30;;;;;;;8.83;73.75;99295.48;103687;1253;137764;-70